Terminal Aerodrome Forecast
Issued by NWS Blacksburg, VA

Current Version | Previous Version | Text Only | Print | Product List | Glossary Off
Versions: 1 2 3 4 5 6 7 8 9 10 11 12 13 14 15 16 17 18 19 20 21 22 23 24 25 26 27 28 29 30 31 32 33 34 35 36 37 38

584
FTUS41 KRNK 160406 AAB
TAFBLF
TAF AMD
KBLF 160406Z 1604/1624 27008KT P6SM OVC022
     FM160500 26006KT P6SM OVC018
     FM160700 27010G20KT P6SM OVC015
     FM161400 28012G22KT P6SM BKN035=

USA.gov is the U.S. government's official web portal to all federal, state and local government web resources and services.